Time;durP1;ratioP1;P1;durP2;ratioP2;P2;SDS_P1;SDS_P2;PMS_P1;PMS_P2;Temp;Humidity;BMP_temperature;BMP_pressure;BME280_temperature;BME280_humidity;BME280_pressure;Samples;Min_cycle;Max_cycle;Signal;HPM_P1;HPM_P2
2024/01/26 00:00:26;;;;;;;29.17;16.50;;;9.00;99.90;;;;;;5003181;28;20118;-91
2024/01/26 00:02:51;;;;;;;26.40;15.70;;;8.90;99.90;;;;;;5000925;28;20054;-91
2024/01/26 00:05:17;;;;;;;26.88;14.32;;;9.00;99.90;;;;;;5003472;28;20030;-93
2024/01/26 00:07:43;;;;;;;25.40;14.93;;;9.00;99.90;;;;;;5014511;28;20125;-90
2024/01/26 00:10:09;;;;;;;26.35;14.93;;;9.00;99.90;;;;;;5000232;28;20034;-92
2024/01/26 00:12:36;;;;;;;26.23;14.27;;;9.00;99.90;;;;;;5000027;28;20034;-91
2024/01/26 00:15:02;;;;;;;26.13;14.50;;;9.00;99.90;;;;;;4999649;28;20056;-91
2024/01/26 00:17:27;;;;;;;28.67;14.60;;;9.00;99.90;;;;;;5000204;28;20029;-90
2024/01/26 00:19:54;;;;;;;27.15;15.20;;;9.00;99.90;;;;;;4995847;28;20026;-91
2024/01/26 00:22:20;;;;;;;29.50;15.25;;;9.00;99.90;;;;;;4999229;28;20065;-91
2024/01/26 00:24:46;;;;;;;27.00;14.32;;;9.00;99.90;;;;;;5000831;28;20027;-92
2024/01/26 00:27:11;;;;;;;29.50;15.77;;;9.00;99.90;;;;;;5002767;28;20026;-91
2024/01/26 00:29:37;;;;;;;28.20;16.15;;;9.00;99.90;;;;;;5000467;28;20525;-91
2024/01/26 00:32:03;;;;;;;28.05;14.63;;;9.00;99.90;;;;;;4999529;28;20041;-92
2024/01/26 00:34:29;;;;;;;30.30;15.93;;;8.90;99.90;;;;;;4999231;28;20453;-90
2024/01/26 00:36:58;;;;;;;28.45;15.45;;;8.90;99.90;;;;;;5006755;28;20046;-91
2024/01/26 00:39:23;;;;;;;31.08;16.73;;;8.90;99.90;;;;;;4998801;28;20034;-91
2024/01/26 00:41:49;;;;;;;24.85;14.90;;;8.90;99.90;;;;;;5004921;28;20038;-92
2024/01/26 00:44:15;;;;;;;25.27;15.80;;;8.90;99.90;;;;;;5006919;28;20023;-91
2024/01/26 00:46:40;;;;;;;28.33;15.77;;;8.90;99.90;;;;;;5001015;28;20022;-91
2024/01/26 00:49:07;;;;;;;27.20;14.38;;;8.90;99.90;;;;;;5002329;28;20037;-91
2024/01/26 00:51:33;;;;;;;27.27;14.27;;;8.80;99.90;;;;;;4999423;28;20050;-90
2024/01/26 00:53:59;;;;;;;29.02;16.48;;;8.80;99.90;;;;;;5000176;28;20101;-91
2024/01/26 00:56:25;;;;;;;28.15;17.27;;;8.80;99.90;;;;;;5000513;28;20037;-91
2024/01/26 00:58:50;;;;;;;34.92;16.65;;;8.80;99.90;;;;;;4999830;28;20465;-91
2024/01/26 01:01:16;;;;;;;29.85;15.05;;;8.80;99.90;;;;;;5012296;28;20505;-91
2024/01/26 01:03:42;;;;;;;26.38;14.45;;;8.90;99.90;;;;;;4999537;28;20056;-91
2024/01/26 01:06:08;;;;;;;30.15;16.15;;;8.90;99.90;;;;;;5003156;28;20090;-91
2024/01/26 01:08:34;;;;;;;28.15;16.08;;;8.90;99.90;;;;;;5004668;28;20058;-91
2024/01/26 01:10:59;;;;;;;29.55;15.82;;;8.80;99.90;;;;;;5006143;28;20053;-90
2024/01/26 01:13:25;;;;;;;30.23;17.50;;;8.80;99.90;;;;;;5008295;28;20037;-91
2024/01/26 01:15:51;;;;;;;27.67;15.10;;;8.80;99.90;;;;;;4998540;28;20030;-91
2024/01/26 01:18:17;;;;;;;32.50;17.00;;;8.70;99.90;;;;;;4999488;28;20101;-91
2024/01/26 01:20:43;;;;;;;30.75;15.50;;;8.80;99.90;;;;;;4995860;28;20153;-92
2024/01/26 01:23:08;;;;;;;25.25;13.73;;;8.80;99.90;;;;;;4997488;28;20070;-90
2024/01/26 01:25:36;;;;;;;28.25;14.88;;;8.80;99.90;;;;;;4999082;28;20461;-91
2024/01/26 01:28:02;;;;;;;24.50;12.98;;;8.80;99.90;;;;;;5000319;28;20354;-92
2024/01/26 01:30:27;;;;;;;22.75;12.20;;;8.80;99.90;;;;;;4999457;28;20022;-91
2024/01/26 01:32:53;;;;;;;21.95;11.40;;;8.80;99.90;;;;;;4999434;28;20104;-91
2024/01/26 01:35:19;;;;;;;22.95;12.52;;;8.80;99.90;;;;;;4998491;28;20033;-92
2024/01/26 01:37:45;;;;;;;20.23;11.70;;;8.80;99.90;;;;;;4998895;28;20097;-90
2024/01/26 01:40:11;;;;;;;18.42;10.00;;;8.80;99.90;;;;;;4997733;28;20054;-91
2024/01/26 01:42:37;;;;;;;17.05;9.70;;;8.90;99.90;;;;;;4999184;28;20041;-91
2024/01/26 01:45:13;;;;;;;16.90;10.18;;;8.90;99.90;;;;;;4999634;28;20106;-91
2024/01/26 01:47:38;;;;;;;16.05;8.77;;;8.90;99.90;;;;;;4997855;28;20045;-90
2024/01/26 01:50:07;;;;;;;14.95;9.02;;;8.90;99.90;;;;;;4997801;28;20397;-90
2024/01/26 01:52:35;;;;;;;16.02;9.25;;;8.90;99.90;;;;;;5004605;28;20022;-92
2024/01/26 01:55:01;;;;;;;14.27;7.60;;;8.90;99.90;;;;;;5002031;28;20034;-92
2024/01/26 01:57:29;;;;;;;13.40;7.45;;;8.90;99.90;;;;;;4998104;28;20030;-91
2024/01/26 01:59:55;;;;;;;13.88;8.35;;;9.00;99.90;;;;;;4998059;28;20017;-91
2024/01/26 02:02:23;;;;;;;14.63;7.25;;;8.90;99.90;;;;;;4995078;28;20101;-90
2024/01/26 02:04:50;;;;;;;16.80;9.68;;;8.90;99.90;;;;;;4997559;28;20022;-91
2024/01/26 02:07:16;;;;;;;13.27;8.00;;;8.90;99.90;;;;;;4997605;28;20481;-91
2024/01/26 02:09:41;;;;;;;14.10;7.57;;;8.80;99.90;;;;;;4996495;28;20057;-92
2024/01/26 02:12:07;;;;;;;14.40;7.88;;;8.80;99.90;;;;;;4996657;28;20157;-90
2024/01/26 02:14:33;;;;;;;13.85;8.40;;;8.90;99.90;;;;;;4998632;28;20045;-91
2024/01/26 02:17:00;;;;;;;10.63;5.75;;;8.90;99.90;;;;;;4998223;28;20035;-90
2024/01/26 02:19:27;;;;;;;11.00;7.00;;;8.90;99.90;;;;;;4998082;28;20081;-90
2024/01/26 02:21:53;;;;;;;9.85;5.40;;;8.90;99.90;;;;;;4998074;28;20111;-90
2024/01/26 02:24:19;;;;;;;8.63;5.60;;;8.90;99.90;;;;;;4998524;28;20054;-91
2024/01/26 02:26:45;;;;;;;8.50;4.88;;;8.90;99.90;;;;;;4999202;28;20054;-91
2024/01/26 02:29:12;;;;;;;6.68;4.78;;;8.90;99.90;;;;;;4997538;28;20031;-91
2024/01/26 02:31:38;;;;;;;5.68;3.60;;;9.00;99.90;;;;;;4997815;28;20512;-91
2024/01/26 02:34:03;;;;;;;4.32;3.60;;;9.00;99.90;;;;;;4997459;28;20030;-91
2024/01/26 02:36:32;;;;;;;6.63;4.00;;;9.00;99.90;;;;;;4993766;28;20030;-91
2024/01/26 02:38:57;;;;;;;6.28;3.53;;;9.00;99.90;;;;;;4993180;28;20113;-92
2024/01/26 02:41:23;;;;;;;7.90;4.28;;;9.10;99.90;;;;;;4997276;28;20054;-91
2024/01/26 02:43:49;;;;;;;4.97;3.13;;;9.10;99.90;;;;;;4997381;28;20560;-92
2024/01/26 02:46:15;;;;;;;4.22;2.70;;;9.10;99.90;;;;;;4997405;28;20717;-91
2024/01/26 02:48:41;;;;;;;4.20;2.20;;;9.10;99.90;;;;;;4997140;28;20042;-91
2024/01/26 02:51:07;;;;;;;5.15;2.90;;;9.10;99.90;;;;;;4995787;28;20405;-90
2024/01/26 02:53:33;;;;;;;5.07;2.35;;;9.10;99.90;;;;;;4997503;28;20041;-91
2024/01/26 02:55:58;;;;;;;4.07;3.13;;;9.10;99.90;;;;;;4996214;28;20087;-91
2024/01/26 02:58:25;;;;;;;7.32;3.20;;;9.00;99.90;;;;;;4996886;28;20042;-91
2024/01/26 03:00:50;;;;;;;6.13;2.60;;;9.10;99.90;;;;;;4997336;28;20046;-91
2024/01/26 03:03:16;;;;;;;7.57;2.60;;;9.10;99.90;;;;;;5004416;28;20022;-93
2024/01/26 03:05:42;;;;;;;3.63;2.67;;;9.10;99.90;;;;;;5002462;28;20113;-91
2024/01/26 03:08:08;;;;;;;4.57;2.05;;;9.10;99.90;;;;;;4999744;28;20481;-91
2024/01/26 03:10:34;;;;;;;3.08;2.30;;;9.20;99.90;;;;;;4993087;28;20643;-92
2024/01/26 03:12:59;;;;;;;4.82;3.53;;;9.20;99.90;;;;;;4997695;28;20026;-91
2024/01/26 03:15:25;;;;;;;3.47;2.25;;;9.10;99.90;;;;;;5012318;28;20034;-91
2024/01/26 03:17:51;;;;;;;5.53;3.75;;;9.20;99.90;;;;;;5000890;28;20114;-92
2024/01/26 03:20:17;;;;;;;4.95;2.22;;;9.10;99.90;;;;;;4993292;28;20026;-93
2024/01/26 03:22:43;;;;;;;3.53;2.88;;;9.10;99.90;;;;;;5000924;28;20084;-91
2024/01/26 03:25:09;;;;;;;2.97;2.15;;;9.00;99.90;;;;;;4995473;28;20113;-91
2024/01/26 03:27:35;;;;;;;3.28;1.75;;;9.00;99.90;;;;;;4997891;28;20037;-92
2024/01/26 03:30:04;;;;;;;3.67;2.03;;;9.10;99.90;;;;;;4997093;28;20437;-94
2024/01/26 03:32:30;;;;;;;2.83;2.33;;;9.10;99.90;;;;;;5011156;28;20025;-93
2024/01/26 03:34:56;;;;;;;5.82;1.95;;;9.10;99.90;;;;;;4996512;28;20026;-91
2024/01/26 03:37:22;;;;;;;3.45;2.78;;;9.10;99.90;;;;;;4995503;28;20061;-91
2024/01/26 03:39:48;;;;;;;3.75;2.00;;;9.10;99.90;;;;;;4997360;28;20080;-91
2024/01/26 03:42:14;;;;;;;2.75;2.30;;;9.10;99.90;;;;;;4999572;28;20023;-92
2024/01/26 03:44:43;;;;;;;4.95;2.42;;;9.20;99.90;;;;;;4993517;28;20474;-91
2024/01/26 03:47:10;;;;;;;3.53;2.35;;;9.20;99.90;;;;;;5001123;28;20469;-92
2024/01/26 03:49:36;;;;;;;4.68;2.75;;;9.20;99.90;;;;;;4997720;28;20061;-92
2024/01/26 03:52:04;;;;;;;4.50;2.15;;;9.20;99.90;;;;;;5001037;28;20026;-91
2024/01/26 03:54:30;;;;;;;2.90;1.80;;;9.20;99.90;;;;;;5006474;28;20033;-90
2024/01/26 03:56:56;;;;;;;2.95;1.80;;;9.10;99.90;;;;;;5001408;28;20034;-91
2024/01/26 03:59:21;;;;;;;3.00;1.90;;;9.10;99.90;;;;;;4994452;28;20036;-91
2024/01/26 04:01:47;;;;;;;2.88;1.70;;;9.20;99.90;;;;;;4996560;28;20026;-91
2024/01/26 04:04:12;;;;;;;3.83;1.65;;;9.20;99.90;;;;;;4998858;28;20018;-91
2024/01/26 04:06:41;;;;;;;4.13;1.38;;;9.10;99.90;;;;;;4994470;28;20072;-90
2024/01/26 04:09:08;;;;;;;2.60;1.75;;;9.20;99.90;;;;;;4995865;28;20500;-92
2024/01/26 04:11:34;;;;;;;3.38;2.45;;;9.10;99.90;;;;;;4997755;28;20508;-92
2024/01/26 04:14:00;;;;;;;2.95;1.63;;;9.10;99.90;;;;;;4996169;28;20066;-91
2024/01/26 04:16:25;;;;;;;3.13;2.03;;;9.10;99.90;;;;;;5021374;28;20033;-91
2024/01/26 04:18:51;;;;;;;5.75;1.88;;;9.10;99.90;;;;;;4997435;28;20370;-91
2024/01/26 04:21:17;;;;;;;4.10;1.85;;;9.10;99.90;;;;;;5000040;28;20018;-92
2024/01/26 04:23:42;;;;;;;3.30;1.80;;;9.10;99.90;;;;;;4997134;28;20046;-91
2024/01/26 04:26:08;;;;;;;2.40;2.17;;;9.10;99.90;;;;;;4987469;28;20032;-91
2024/01/26 04:28:34;;;;;;;2.28;1.67;;;9.00;99.90;;;;;;4995224;28;20066;-91
2024/01/26 04:31:00;;;;;;;2.90;1.52;;;9.00;99.90;;;;;;4996198;28;20037;-91
2024/01/26 04:33:26;;;;;;;3.97;1.95;;;9.00;99.90;;;;;;4996575;28;20027;-91
2024/01/26 04:35:51;;;;;;;2.65;2.30;;;9.00;99.90;;;;;;4996182;28;20543;-90
2024/01/26 04:38:17;;;;;;;2.53;1.70;;;9.00;99.90;;;;;;4996431;28;20034;-93
2024/01/26 04:40:43;;;;;;;3.33;1.90;;;9.00;99.90;;;;;;4998319;28;20030;-91
2024/01/26 04:43:09;;;;;;;5.00;1.73;;;9.00;99.90;;;;;;4998485;28;20500;-91
2024/01/26 04:45:35;;;;;;;2.38;2.13;;;8.90;99.90;;;;;;5005930;28;20693;-94
2024/01/26 04:48:00;;;;;;;3.05;1.48;;;9.00;99.90;;;;;;4999866;28;20034;-92
2024/01/26 04:50:26;;;;;;;4.43;2.17;;;9.00;99.90;;;;;;5002505;28;20029;-92
2024/01/26 04:52:52;;;;;;;2.17;1.50;;;9.00;99.90;;;;;;5002227;28;20050;-93
2024/01/26 04:55:22;;;;;;;3.75;2.00;;;9.00;99.90;;;;;;5017998;28;20046;-93
2024/01/26 04:57:47;;;;;;;5.13;1.63;;;9.00;99.90;;;;;;5001411;28;20093;-93
2024/01/26 05:00:14;;;;;;;2.03;1.33;;;9.00;99.90;;;;;;5002388;28;20061;-93
2024/01/26 05:02:40;;;;;;;5.05;2.22;;;9.00;99.90;;;;;;5001207;28;20027;-92
2024/01/26 05:05:06;;;;;;;5.55;1.85;;;9.00;99.90;;;;;;5000602;28;20026;-92
2024/01/26 05:07:31;;;;;;;3.63;2.55;;;9.00;99.90;;;;;;5002639;28;20030;-92
2024/01/26 05:09:57;;;;;;;3.45;2.28;;;8.90;99.90;;;;;;5017135;28;20022;-92
2024/01/26 05:12:23;;;;;;;2.67;1.77;;;8.90;99.90;;;;;;4994822;28;20053;-93
2024/01/26 05:14:48;;;;;;;2.97;2.15;;;8.90;99.90;;;;;;5002043;28;20398;-93
2024/01/26 05:17:14;;;;;;;4.45;2.10;;;8.90;99.90;;;;;;5002841;28;20038;-92
2024/01/26 05:19:40;;;;;;;3.70;2.25;;;9.00;99.90;;;;;;5002488;28;20030;-92
2024/01/26 05:22:05;;;;;;;4.50;2.70;;;9.00;99.90;;;;;;4989612;28;20027;-90
2024/01/26 05:24:31;;;;;;;5.85;2.25;;;9.00;99.90;;;;;;4999724;28;20074;-91
2024/01/26 05:26:57;;;;;;;4.35;1.98;;;8.90;99.90;;;;;;5000509;28;20031;-93
2024/01/26 05:29:23;;;;;;;3.17;1.98;;;8.90;99.90;;;;;;5007860;28;20057;-94
2024/01/26 05:31:49;;;;;;;5.53;2.95;;;8.90;99.90;;;;;;5016054;28;20038;-92
2024/01/26 05:34:14;;;;;;;4.75;2.10;;;8.90;99.90;;;;;;5002508;28;20039;-92
2024/01/26 05:36:43;;;;;;;4.32;2.58;;;8.90;99.90;;;;;;5001398;28;20522;-92
2024/01/26 05:39:10;;;;;;;4.45;2.05;;;8.90;99.90;;;;;;5001496;28;20022;-93
2024/01/26 05:41:37;;;;;;;5.30;3.10;;;8.90;99.90;;;;;;5001315;28;20137;-92
2024/01/26 05:44:03;;;;;;;3.92;2.15;;;8.90;99.90;;;;;;5002298;28;20029;-94
2024/01/26 05:46:29;;;;;;;3.50;2.47;;;8.90;99.90;;;;;;5001033;28;20105;-93
2024/01/26 05:48:57;;;;;;;6.28;4.53;;;8.90;99.90;;;;;;5001828;28;20058;-92
2024/01/26 05:51:26;;;;;;;3.05;2.22;;;8.90;99.90;;;;;;5001212;28;20030;-93
2024/01/26 05:53:52;;;;;;;3.03;1.60;;;9.00;99.90;;;;;;5014350;28;20022;-92
2024/01/26 05:56:18;;;;;;;3.90;3.50;;;9.00;99.90;;;;;;5001044;28;20037;-94
2024/01/26 05:58:44;;;;;;;4.13;2.80;;;9.00;99.90;;;;;;4998655;28;20149;-91
2024/01/26 06:01:10;;;;;;;3.20;2.50;;;9.00;99.90;;;;;;5001879;28;20086;-92
2024/01/26 06:03:36;;;;;;;3.58;2.28;;;9.00;99.90;;;;;;5011007;28;20022;-93
2024/01/26 06:06:03;;;;;;;3.72;2.88;;;9.10;99.90;;;;;;4999214;28;20038;-93
2024/01/26 06:08:29;;;;;;;3.30;1.63;;;9.20;99.90;;;;;;4995628;28;20030;-91
2024/01/26 06:10:56;;;;;;;4.10;3.13;;;9.20;99.90;;;;;;4990896;28;20098;-92
2024/01/26 06:13:23;;;;;;;4.85;2.05;;;9.20;99.90;;;;;;4989908;28;20030;-93
2024/01/26 06:15:52;;;;;;;3.78;2.47;;;9.20;99.90;;;;;;4985687;28;20041;-92
2024/01/26 06:18:18;;;;;;;2.90;1.88;;;9.20;99.90;;;;;;4985134;28;20041;-94
2024/01/26 06:20:44;;;;;;;3.70;2.28;;;9.20;99.90;;;;;;4986378;28;20038;-92
2024/01/26 06:23:10;;;;;;;3.25;2.20;;;9.20;99.90;;;;;;4987186;28;20054;-91
2024/01/26 06:25:35;;;;;;;5.50;3.53;;;9.20;99.90;;;;;;4981489;28;20420;-93
2024/01/26 06:28:01;;;;;;;5.20;2.63;;;9.10;99.90;;;;;;4989209;28;20143;-92
2024/01/26 06:30:27;;;;;;;3.13;2.00;;;9.20;99.90;;;;;;4989649;28;20026;-92
2024/01/26 06:32:56;;;;;;;3.95;2.65;;;9.10;99.90;;;;;;4986528;28;20030;-92
2024/01/26 06:35:22;;;;;;;3.45;2.85;;;9.10;99.90;;;;;;4984605;28;20026;-92
2024/01/26 06:37:48;;;;;;;3.28;2.97;;;9.20;99.90;;;;;;4987787;28;20046;-92
2024/01/26 06:40:13;;;;;;;3.30;2.88;;;9.10;99.90;;;;;;4985954;28;20057;-93
2024/01/26 06:42:40;;;;;;;3.88;2.33;;;9.20;99.90;;;;;;4987573;28;20053;-91
2024/01/26 06:45:10;;;;;;;4.63;2.40;;;9.20;99.90;;;;;;4986668;28;20027;-93
2024/01/26 06:47:36;;;;;;;3.45;2.10;;;9.20;99.90;;;;;;4992920;28;20019;-93
2024/01/26 06:50:05;;;;;;;3.25;2.38;;;9.20;99.90;;;;;;4986154;28;20531;-94
2024/01/26 06:52:32;;;;;;;4.30;1.83;;;9.20;99.90;;;;;;4992279;28;20031;-91
2024/01/26 06:54:58;;;;;;;4.10;2.72;;;9.20;99.90;;;;;;4985984;28;20042;-92
2024/01/26 06:57:24;;;;;;;2.55;1.95;;;9.10;99.90;;;;;;4984256;28;20065;-91
2024/01/26 06:59:49;;;;;;;3.53;2.40;;;9.20;99.90;;;;;;4988772;28;20366;-93
2024/01/26 07:02:15;;;;;;;5.32;2.15;;;9.20;99.90;;;;;;4985432;28;20520;-92
2024/01/26 07:04:46;;;;;;;6.00;3.28;;;9.20;99.90;;;;;;4994271;28;20069;-94
2024/01/26 07:07:11;;;;;;;3.17;2.70;;;9.20;99.90;;;;;;5007451;28;20013;-95
2024/01/26 07:09:37;;;;;;;3.60;2.20;;;9.10;99.90;;;;;;5008485;28;20053;-94
2024/01/26 07:12:03;;;;;;;3.08;2.40;;;9.10;99.90;;;;;;5008384;28;20045;-94
2024/01/26 07:14:29;;;;;;;5.30;2.40;;;9.10;99.90;;;;;;5002746;28;20053;-94
2024/01/26 07:16:55;;;;;;;6.30;2.63;;;9.20;99.90;;;;;;5007356;28;20057;-94
2024/01/26 07:19:21;;;;;;;5.07;2.55;;;9.20;99.90;;;;;;4987146;28;20168;-93
2024/01/26 07:21:47;;;;;;;3.45;2.13;;;9.10;99.90;;;;;;4983400;28;21432;-91
2024/01/26 07:24:12;;;;;;;3.97;2.38;;;9.10;99.90;;;;;;4983468;28;20121;-93
2024/01/26 07:26:38;;;;;;;6.03;2.90;;;9.10;99.90;;;;;;4987869;28;20307;-92
2024/01/26 07:29:04;;;;;;;4.28;2.53;;;9.10;99.90;;;;;;4989143;28;20041;-91
2024/01/26 07:31:43;;;;;;;3.28;2.58;;;9.10;99.90;;;;;;5001256;28;20027;-95
2024/01/26 07:34:09;;;;;;;4.93;2.53;;;9.10;99.90;;;;;;5002886;28;20022;-95
2024/01/26 07:36:38;;;;;;;4.00;2.33;;;9.10;99.90;;;;;;5006576;28;20040;-95
2024/01/26 07:39:05;;;;;;;2.67;2.05;;;9.20;99.90;;;;;;5007758;28;20034;-94
2024/01/26 07:41:35;;;;;;;3.65;2.38;;;9.20;99.90;;;;;;5003596;28;20081;-95
2024/01/26 07:44:04;;;;;;;7.75;3.90;;;9.20;99.90;;;;;;5006222;28;20054;-94
2024/01/26 07:46:30;;;;;;;5.82;3.67;;;9.20;99.90;;;;;;5015142;28;20014;-95
2024/01/26 07:48:59;;;;;;;4.65;3.05;;;9.20;99.90;;;;;;5010775;28;20038;-95
2024/01/26 07:51:34;;;;;;;3.67;1.95;;;9.20;99.90;;;;;;5008133;28;20050;-94
2024/01/26 07:54:00;;;;;;;4.45;2.70;;;9.20;99.90;;;;;;5007034;28;20080;-95
2024/01/26 07:56:26;;;;;;;3.22;2.42;;;9.10;99.90;;;;;;5020855;28;20447;-95
2024/01/26 07:58:52;;;;;;;3.70;2.58;;;9.00;99.90;;;;;;5007543;28;20014;-95
2024/01/26 08:01:17;;;;;;;5.50;2.58;;;9.10;99.90;;;;;;5013924;28;20038;-95
2024/01/26 08:03:43;;;;;;;5.85;2.50;;;9.10;99.90;;;;;;5007227;28;20084;-96
2024/01/26 08:06:12;;;;;;;3.88;2.78;;;9.00;99.90;;;;;;5006637;28;20023;-95
2024/01/26 08:08:41;;;;;;;4.65;2.75;;;9.00;99.90;;;;;;5004967;28;20027;-95
2024/01/26 08:11:06;;;;;;;5.47;3.13;;;9.00;99.90;;;;;;5004672;28;20049;-95
2024/01/26 08:13:32;;;;;;;6.43;3.25;;;9.10;99.90;;;;;;5009470;28;20030;-95
2024/01/26 08:16:04;;;;;;;4.45;2.28;;;9.10;99.90;;;;;;5010690;28;20037;-95
2024/01/26 08:18:32;;;;;;;3.58;2.10;;;9.10;99.90;;;;;;5010430;28;20074;-95
2024/01/26 08:20:58;;;;;;;4.55;2.63;;;9.10;99.90;;;;;;5018827;28;20027;-95
2024/01/26 08:23:24;;;;;;;4.47;2.15;;;9.10;99.90;;;;;;5009630;28;20030;-95
2024/01/26 08:25:51;;;;;;;3.22;2.25;;;9.10;99.90;;;;;;5010047;28;20178;-95
2024/01/26 08:28:16;;;;;;;4.40;2.20;;;9.10;99.90;;;;;;5010360;28;20037;-95
2024/01/26 08:30:45;;;;;;;3.65;2.28;;;9.10;99.90;;;;;;5011080;28;20037;-94
2024/01/26 08:33:11;;;;;;;5.43;2.67;;;9.20;99.90;;;;;;5014409;28;20022;-95
2024/01/26 08:35:37;;;;;;;4.88;2.17;;;9.10;99.90;;;;;;5012826;28;20026;-95
2024/01/26 08:38:03;;;;;;;5.43;2.40;;;9.20;99.90;;;;;;5012611;28;20027;-95
2024/01/26 08:40:29;;;;;;;3.25;2.20;;;9.10;99.90;;;;;;5013417;28;20023;-96
2024/01/26 08:43:08;;;;;;;4.78;2.10;;;9.20;99.90;;;;;;5014179;28;20026;-95
2024/01/26 08:45:38;;;;;;;2.92;2.35;;;9.20;99.90;;;;;;5016721;28;20030;-96
2024/01/26 08:48:04;;;;;;;5.07;2.35;;;9.20;99.90;;;;;;5071093;23;20050;-93
2024/01/26 08:50:30;;;;;;;3.45;2.08;;;9.20;99.90;;;;;;5044099;28;20087;-91
2024/01/26 08:52:55;;;;;;;4.00;3.00;;;9.20;99.90;;;;;;5048143;28;20038;-93
2024/01/26 08:55:21;;;;;;;4.80;2.13;;;9.20;99.90;;;;;;5032657;28;20036;-93
2024/01/26 08:57:48;;;;;;;3.53;2.00;;;9.30;99.90;;;;;;5030202;28;20026;-92
2024/01/26 09:00:15;;;;;;;4.10;2.40;;;9.30;99.90;;;;;;5030353;28;20034;-92
2024/01/26 09:02:40;;;;;;;5.28;3.10;;;9.40;99.90;;;;;;5030551;28;20025;-91
2024/01/26 09:05:07;;;;;;;4.28;2.30;;;9.40;99.90;;;;;;5023566;28;20109;-94
2024/01/26 09:07:32;;;;;;;3.22;1.92;;;9.50;99.90;;;;;;5012628;28;20023;-91
2024/01/26 09:09:58;;;;;;;3.00;2.47;;;9.50;99.90;;;;;;5030162;28;20064;-93
2024/01/26 09:12:24;;;;;;;3.30;2.05;;;9.50;99.90;;;;;;5029269;28;20033;-90
2024/01/26 09:14:50;;;;;;;3.67;2.20;;;9.60;99.90;;;;;;5027976;28;20027;-94
2024/01/26 09:17:16;;;;;;;4.05;2.25;;;9.60;99.90;;;;;;5026311;28;20018;-92
2024/01/26 09:19:41;;;;;;;6.70;2.15;;;9.60;99.90;;;;;;5030810;28;20025;-91
2024/01/26 09:22:08;;;;;;;3.67;2.10;;;9.60;99.90;;;;;;5025204;28;20018;-92
2024/01/26 09:24:34;;;;;;;2.50;1.50;;;9.70;99.90;;;;;;5027437;28;20017;-93
2024/01/26 09:27:01;;;;;;;5.05;2.83;;;9.70;99.90;;;;;;5028435;28;20029;-90
2024/01/26 09:29:27;;;;;;;3.85;2.28;;;9.80;99.90;;;;;;5027890;28;20040;-92
2024/01/26 09:31:54;;;;;;;4.65;2.55;;;9.90;99.90;;;;;;5030046;28;20033;-92
2024/01/26 09:34:20;;;;;;;4.05;2.30;;;9.90;99.90;;;;;;5031869;28;20018;-91
2024/01/26 09:36:46;;;;;;;2.20;2.00;;;9.90;99.90;;;;;;5028529;28;20033;-91
2024/01/26 09:39:12;;;;;;;2.47;1.55;;;10.00;99.90;;;;;;5029358;28;20022;-92
2024/01/26 09:41:38;;;;;;;3.08;1.58;;;10.10;99.90;;;;;;5027088;28;20022;-91
2024/01/26 09:44:04;;;;;;;3.95;2.10;;;10.10;99.90;;;;;;5022759;28;20018;-91
2024/01/26 09:46:33;;;;;;;3.63;2.22;;;10.20;99.90;;;;;;5008644;28;20026;-91
2024/01/26 09:49:00;;;;;;;4.07;2.28;;;10.20;99.90;;;;;;5008241;28;20044;-92
2024/01/26 09:51:26;;;;;;;3.47;2.58;;;10.20;99.90;;;;;;5009687;28;20088;-92
2024/01/26 09:53:58;;;;;;;4.88;2.33;;;10.20;99.90;;;;;;5024841;28;20090;-90
2024/01/26 09:56:26;;;;;;;3.03;2.70;;;10.30;99.90;;;;;;5035782;28;20041;-91
2024/01/26 09:58:52;;;;;;;;;;;10.30;99.90;;;;;;5037575;28;20025;-91
2024/01/26 10:01:22;;;;;;;3.85;2.03;;;10.40;99.90;;;;;;5053145;28;19897;-93
2024/01/26 10:03:50;;;;;;;3.55;2.42;;;10.40;99.90;;;;;;5037371;28;20028;-93
2024/01/26 10:06:16;;;;;;;3.63;1.70;;;10.50;99.90;;;;;;5036997;28;20010;-92
2024/01/26 10:08:42;;;;;;;3.25;2.05;;;10.60;99.90;;;;;;5029054;28;20094;-95
2024/01/26 10:11:08;;;;;;;2.72;1.98;;;10.70;99.90;;;;;;5031077;28;20026;-92
2024/01/26 10:13:34;;;;;;;3.65;1.70;;;10.70;99.90;;;;;;5033974;28;20006;-92
2024/01/26 10:16:11;;;;;;;3.28;1.95;;;10.80;99.90;;;;;;5035704;28;20025;-93
2024/01/26 10:18:45;;;;;;;4.53;2.17;;;10.90;99.90;;;;;;5027297;28;20113;-92
2024/01/26 10:21:12;;;;;;;4.88;2.05;;;10.90;99.90;;;;;;5028281;28;20026;-92
2024/01/26 10:23:38;;;;;;;3.55;1.67;;;10.90;99.90;;;;;;5028737;28;20022;-92
2024/01/26 10:26:04;;;;;;;2.33;1.80;;;10.90;99.90;;;;;;5028537;28;20026;-92
2024/01/26 10:28:30;;;;;;;3.15;2.28;;;10.90;99.90;;;;;;5027894;28;20084;-93
2024/01/26 10:30:56;;;;;;;3.42;1.60;;;10.90;99.90;;;;;;5026362;28;20479;-93
2024/01/26 10:33:23;;;;;;;2.92;2.17;;;10.90;99.90;;;;;;5027686;28;20061;-91
2024/01/26 10:35:50;;;;;;;3.58;1.85;;;10.90;99.90;;;;;;5041065;28;20057;-93
2024/01/26 10:38:16;;;;;;;;;;;10.90;99.90;;;;;;5027312;28;20021;-92
2024/01/26 10:40:44;;;;;;;4.38;2.35;;;10.90;99.90;;;;;;5025737;28;20324;-92
2024/01/26 10:43:13;;;;;;;3.58;1.70;;;10.90;99.90;;;;;;5027141;28;20037;-91
2024/01/26 10:45:39;;;;;;;2.60;1.55;;;10.90;99.90;;;;;;5027057;28;20029;-93
2024/01/26 10:48:07;;;;;;;4.82;1.92;;;11.00;99.90;;;;;;5027343;28;20085;-91
2024/01/26 10:50:35;;;;;;;2.42;1.55;;;10.90;99.90;;;;;;5043072;28;20022;-92
2024/01/26 10:53:05;;;;;;;4.90;2.38;;;10.80;99.90;;;;;;5027503;28;20085;-92
2024/01/26 10:55:31;;;;;;;6.13;2.10;;;10.80;99.90;;;;;;5024994;28;20048;-92
2024/01/26 10:57:59;;;;;;;4.18;2.17;;;10.80;99.90;;;;;;5006997;28;20078;-91
2024/01/26 11:00:25;;;;;;;3.60;2.67;;;10.70;99.90;;;;;;5007926;28;20049;-92
2024/01/26 11:02:54;;;;;;;4.97;2.35;;;10.70;99.90;;;;;;5026452;28;20516;-91
2024/01/26 11:05:20;;;;;;;3.20;2.20;;;10.70;99.90;;;;;;5027271;28;20056;-93
2024/01/26 11:07:47;;;;;;;2.50;1.90;;;10.60;99.90;;;;;;5026764;28;20026;-94
2024/01/26 11:10:19;;;;;;;5.30;2.63;;;10.60;99.90;;;;;;5025340;28;20119;-91
2024/01/26 11:12:45;;;;;;;4.50;3.25;;;10.50;99.90;;;;;;5030399;28;20022;-93
2024/01/26 11:15:16;;;;;;;5.22;3.05;;;10.50;99.90;;;;;;5048933;28;20017;-92
2024/01/26 11:18:05;;;;;;;5.45;3.35;;;10.50;99.90;;;;;;5030297;28;20026;-91
2024/01/26 11:20:32;;;;;;;4.13;2.75;;;10.40;99.90;;;;;;5026531;28;20389;-92
2024/01/26 11:23:10;;;;;;;3.22;2.35;;;10.40;99.90;;;;;;5027199;28;20030;-92
2024/01/26 11:25:38;;;;;;;5.88;3.42;;;10.40;99.90;;;;;;5043180;28;20032;-92
2024/01/26 11:28:08;;;;;;;5.07;3.60;;;10.40;99.90;;;;;;5023620;28;20030;-93
2024/01/26 11:30:35;;;;;;;4.85;2.80;;;10.40;99.90;;;;;;5026966;28;20025;-91
2024/01/26 11:33:01;;;;;;;5.03;2.92;;;10.30;99.90;;;;;;5024211;28;20034;-92
2024/01/26 11:35:27;;;;;;;4.57;2.58;;;10.30;99.90;;;;;;5024663;28;20052;-92
2024/01/26 11:37:55;;;;;;;5.70;3.08;;;10.30;99.90;;;;;;5028162;28;20026;-92
2024/01/26 11:40:23;;;;;;;5.38;2.53;;;10.20;99.90;;;;;;5026390;28;20086;-92
2024/01/26 11:42:50;;;;;;;5.28;3.00;;;10.30;99.90;;;;;;5025570;28;20101;-93
2024/01/26 11:45:44;;;;;;;5.70;3.88;;;10.20;99.90;;;;;;5023654;28;20033;-92
2024/01/26 11:48:10;;;;;;;4.95;3.17;;;10.20;99.90;;;;;;5024903;28;20389;-91
2024/01/26 11:50:37;;;;;;;7.00;3.47;;;10.10;99.90;;;;;;5024486;28;20022;-91
2024/01/26 11:53:06;;;;;;;5.45;3.33;;;10.00;99.90;;;;;;5023894;28;20049;-92
2024/01/26 11:55:32;;;;;;;5.80;4.03;;;10.00;99.90;;;;;;5024493;28;20049;-92
2024/01/26 11:57:58;;;;;;;7.25;4.57;;;10.00;99.90;;;;;;5024182;28;20041;-92
2024/01/26 12:00:24;;;;;;;5.90;3.35;;;10.00;99.90;;;;;;5026363;28;20022;-92
2024/01/26 12:02:50;;;;;;;7.50;3.88;;;9.90;99.90;;;;;;5026750;28;20018;-93
2024/01/26 12:05:16;;;;;;;6.55;3.40;;;9.90;99.90;;;;;;5027954;28;20033;-92
2024/01/26 12:07:42;;;;;;;6.22;3.72;;;9.90;99.90;;;;;;5026512;28;20030;-92
2024/01/26 12:10:17;;;;;;;8.38;4.70;;;9.90;99.90;;;;;;5027145;28;20033;-92
2024/01/26 12:12:44;;;;;;;6.95;3.92;;;9.90;99.90;;;;;;5028059;28;20029;-91
2024/01/26 12:15:11;;;;;;;7.10;3.65;;;9.90;99.90;;;;;;5027298;28;20029;-92
2024/01/26 12:17:37;;;;;;;11.77;4.93;;;9.80;99.90;;;;;;5025624;28;20476;-92
2024/01/26 12:20:10;;;;;;;7.35;4.70;;;9.90;99.90;;;;;;5025955;28;20053;-93
2024/01/26 12:22:36;;;;;;;8.15;4.47;;;9.80;99.90;;;;;;5026450;28;20022;-92
2024/01/26 12:25:07;;;;;;;8.02;4.18;;;9.80;99.90;;;;;;5026708;28;20087;-93
2024/01/26 12:27:38;;;;;;;7.93;3.70;;;9.80;99.90;;;;;;5025989;28;20037;-92
2024/01/26 12:30:05;;;;;;;8.07;4.18;;;9.90;99.90;;;;;;5026201;28;20045;-91
2024/01/26 12:32:36;;;;;;;7.80;4.60;;;9.80;99.90;;;;;;5024596;28;20056;-93
2024/01/26 12:35:02;;;;;;;9.32;5.25;;;9.80;99.90;;;;;;5021085;28;20034;-93
2024/01/26 12:37:28;;;;;;;7.82;4.22;;;9.80;99.90;;;;;;5023939;28;20069;-92
2024/01/26 12:39:53;;;;;;;11.15;5.40;;;9.80;99.90;;;;;;5022436;28;20014;-93
2024/01/26 12:42:19;;;;;;;9.20;4.85;;;9.80;99.90;;;;;;5022246;28;20057;-92
2024/01/26 12:44:45;;;;;;;8.27;4.13;;;9.80;99.90;;;;;;5021653;28;20084;-90
2024/01/26 12:47:10;;;;;;;10.60;4.63;;;9.80;99.90;;;;;;5022301;28;20022;-91
2024/01/26 12:49:36;;;;;;;7.43;6.50;;;9.80;99.90;;;;;;5021260;28;20026;-92